Time;durP1;ratioP1;P1;durP2;ratioP2;P2;SDS_P1;SDS_P2;PMS_P1;PMS_P2;Temp;Humidity;BMP_temperature;BMP_pressure;BME280_temperature;BME280_humidity;BME280_pressure;Samples;Min_cycle;Max_cycle;Signal;HPM_P1;HPM_P2
2022/03/09 00:00:31;;;;;;;3.67;1.67;;;1.90;90.70;;;;;;5040108;28;20234;-92
2022/03/09 00:02:57;;;;;;;6.57;1.90;;;2.00;90.60;;;;;;5040778;28;20229;-92
2022/03/09 00:05:23;;;;;;;4.05;1.70;;;3.50;91.20;;;;;;5056322;28;20355;-93
2022/03/09 00:07:49;;;;;;;3.45;1.50;;;1.90;90.90;;;;;;5024691;28;20045;-93
2022/03/09 00:10:15;;;;;;;2.47;1.50;;;2.80;91.00;;;;;;5039624;28;20090;-92
2022/03/09 00:12:42;;;;;;;2.60;1.40;;;1.80;91.10;;;;;;5023919;28;20111;-94
2022/03/09 00:15:08;;;;;;;3.08;1.42;;;3.00;91.60;;;;;;5039991;28;20044;-93
2022/03/09 00:17:33;;;;;;;5.53;1.77;;;1.80;91.20;;;;;;5040407;28;20044;-93
2022/03/09 00:19:59;;;;;;;3.08;1.40;;;2.90;91.60;;;;;;5024433;28;20131;-94
2022/03/09 00:22:25;;;;;;;2.70;1.17;;;2.90;91.80;;;;;;5028802;28;20040;-94
2022/03/09 00:24:50;;;;;;;2.53;1.55;;;1.60;91.70;;;;;;5055687;28;20044;-95
2022/03/09 00:27:16;;;;;;;6.40;1.85;;;1.60;91.90;;;;;;5053034;28;20051;-94
2022/03/09 00:29:42;;;;;;;3.92;2.00;;;2.70;92.60;;;;;;5059391;28;20059;-94
2022/03/09 00:32:08;;;;;;;3.72;1.60;;;2.30;92.20;;;;;;5022915;28;20423;-92
2022/03/09 00:34:34;;;;;;;8.30;1.80;;;2.90;92.20;;;;;;5040011;28;20132;-93
2022/03/09 00:37:01;;;;;;;2.90;1.60;;;3.00;92.50;;;;;;5056502;28;20438;-93
2022/03/09 00:39:27;;;;;;;4.57;1.73;;;1.60;92.30;;;;;;5039259;28;20063;-92
2022/03/09 00:41:53;;;;;;;5.15;1.83;;;1.50;92.00;;;;;;5040144;28;20041;-92
2022/03/09 00:44:19;;;;;;;1.90;1.27;;;3.00;92.40;;;;;;5038695;28;20359;-93
2022/03/09 00:46:44;;;;;;;2.58;1.48;;;1.50;92.60;;;;;;5039924;28;20052;-92
2022/03/09 00:49:10;;;;;;;3.25;1.80;;;3.00;93.10;;;;;;5022646;28;20082;-93
2022/03/09 00:51:36;;;;;;;6.35;1.67;;;1.40;92.90;;;;;;5023234;28;20508;-92
2022/03/09 00:54:02;;;;;;;4.22;1.40;;;1.40;92.70;;;;;;5023259;28;20080;-93
2022/03/09 00:56:27;;;;;;;2.50;1.50;;;1.40;92.80;;;;;;5038920;28;20511;-93
2022/03/09 00:58:53;;;;;;;3.42;1.75;;;1.40;92.80;;;;;;5040155;28;20136;-92
2022/03/09 01:01:19;;;;;;;6.10;1.58;;;1.30;92.80;;;;;;5021902;28;20256;-93
2022/03/09 01:03:45;;;;;;;4.10;2.10;;;1.30;93.20;;;;;;5056694;28;20045;-92
2022/03/09 01:06:11;;;;;;;6.00;1.73;;;1.20;93.30;;;;;;5055269;28;20037;-94
2022/03/09 01:08:37;;;;;;;4.93;1.88;;;1.00;93.60;;;;;;5039346;28;20067;-93
2022/03/09 01:11:02;;;;;;;3.17;1.67;;;1.00;93.60;;;;;;5022837;28;20047;-93
2022/03/09 01:13:28;;;;;;;3.70;1.67;;;2.50;94.10;;;;;;5038735;28;20488;-94
2022/03/09 01:15:54;;;;;;;3.20;1.73;;;2.60;94.60;;;;;;5039317;28;20052;-92
2022/03/09 01:18:20;;;;;;;2.40;1.70;;;2.40;94.60;;;;;;5055477;28;20040;-92
2022/03/09 01:20:46;;;;;;;2.83;1.95;;;1.00;94.40;;;;;;5056045;28;20111;-93
2022/03/09 01:23:12;;;;;;;4.65;1.48;;;1.50;94.70;;;;;;5038507;28;20079;-94
2022/03/09 01:25:38;;;;;;;5.97;1.88;;;2.20;95.10;;;;;;5039782;28;20514;-94
2022/03/09 01:28:04;;;;;;;4.05;1.92;;;1.00;94.80;;;;;;5038633;28;20040;-93
2022/03/09 01:30:30;;;;;;;5.25;2.05;;;1.00;94.80;;;;;;5038740;28;20090;-93
2022/03/09 01:32:55;;;;;;;3.35;1.85;;;1.00;95.10;;;;;;5055544;28;20044;-93
2022/03/09 01:35:21;;;;;;;6.50;1.63;;;0.90;95.40;;;;;;5037943;28;20107;-93
2022/03/09 01:37:47;;;;;;;4.15;2.17;;;1.10;95.40;;;;;;5039059;28;20487;-93
2022/03/09 01:40:13;;;;;;;4.47;1.77;;;1.10;95.20;;;;;;5054159;28;20048;-92
2022/03/09 01:42:39;;;;;;;5.07;1.67;;;1.20;94.90;;;;;;5022682;28;20654;-92
2022/03/09 01:45:08;;;;;;;3.97;2.00;;;1.20;94.60;;;;;;5038433;28;20218;-93
2022/03/09 01:47:34;;;;;;;4.57;2.65;;;1.10;94.60;;;;;;5055244;28;20218;-93
2022/03/09 01:50:00;;;;;;;4.15;2.15;;;1.00;94.60;;;;;;5055382;28;20075;-93
2022/03/09 01:52:26;;;;;;;14.75;2.60;;;2.40;95.20;;;;;;5021075;28;20040;-93
2022/03/09 01:54:53;;;;;;;6.10;2.65;;;1.00;94.90;;;;;;5022429;28;20047;-93
2022/03/09 01:57:22;;;;;;;6.43;2.30;;;0.90;95.00;;;;;;5037957;28;20040;-93
2022/03/09 01:59:52;;;;;;;4.05;2.00;;;2.20;96.10;;;;;;5055620;28;20122;-93
2022/03/09 02:02:18;;;;;;;3.85;2.47;;;0.90;95.60;;;;;;5054656;28;20514;-93
2022/03/09 02:04:45;;;;;;;3.85;2.17;;;0.90;95.60;;;;;;5054660;28;20067;-94
2022/03/09 02:07:12;;;;;;;11.90;2.50;;;0.80;95.80;;;;;;5055262;28;20495;-93
2022/03/09 02:09:41;;;;;;;4.35;2.30;;;0.80;96.30;;;;;;5053947;28;20040;-92
2022/03/09 02:12:11;;;;;;;4.13;2.28;;;1.80;96.60;;;;;;5022783;28;20441;-93
2022/03/09 02:14:42;;;;;;;5.75;2.17;;;0.70;96.70;;;;;;5053575;28;20074;-94
2022/03/09 02:17:17;;;;;;;3.65;1.95;;;0.70;96.90;;;;;;5054976;28;20117;-94
2022/03/09 02:19:45;;;;;;;4.53;2.25;;;0.50;97.50;;;;;;5054799;28;20499;-93
2022/03/09 02:22:30;;;;;;;7.55;2.60;;;0.60;96.90;;;;;;5037035;28;20388;-94
2022/03/09 02:24:56;;;;;;;4.10;2.20;;;0.60;98.00;;;;;;5053466;28;20090;-93
2022/03/09 02:27:22;;;;;;;5.88;2.50;;;0.50;97.70;;;;;;5019327;28;20041;-94
2022/03/09 02:29:49;;;;;;;3.25;1.90;;;0.70;97.50;;;;;;5036687;28;20064;-93
2022/03/09 02:32:15;;;;;;;3.88;2.17;;;0.70;97.30;;;;;;5036030;28;20068;-94
2022/03/09 02:34:41;;;;;;;4.80;2.70;;;0.70;97.40;;;;;;5018797;28;20040;-94
2022/03/09 02:37:07;;;;;;;4.20;2.08;;;0.70;97.30;;;;;;5036657;28;20106;-93
2022/03/09 02:39:32;;;;;;;4.38;2.05;;;1.80;97.80;;;;;;5035143;28;20468;-92
2022/03/09 02:41:58;;;;;;;4.10;2.47;;;0.70;97.40;;;;;;5020325;28;20501;-93
2022/03/09 02:44:24;;;;;;;5.30;2.97;;;0.70;97.30;;;;;;5035237;28;20055;-94
2022/03/09 02:46:50;;;;;;;6.05;3.20;;;0.70;97.50;;;;;;5052945;28;20050;-95
2022/03/09 02:49:16;;;;;;;8.27;2.70;;;0.70;97.60;;;;;;5036647;28;20040;-96
2022/03/09 02:51:42;;;;;;;4.78;2.47;;;0.70;98.20;;;;;;5052194;28;20040;-94
2022/03/09 02:54:08;;;;;;;6.50;2.80;;;0.70;97.70;;;;;;5037002;28;20044;-94
2022/03/09 02:56:34;;;;;;;6.07;2.95;;;2.20;98.10;;;;;;5035062;28;20044;-95
2022/03/09 02:58:59;;;;;;;4.90;3.00;;;1.80;98.10;;;;;;5020521;28;20093;-94
2022/03/09 03:01:25;;;;;;;5.00;2.10;;;2.10;98.40;;;;;;5035335;28;20047;-93
2022/03/09 03:03:51;;;;;;;5.75;2.90;;;0.60;97.90;;;;;;5019643;28;20427;-94
2022/03/09 03:06:17;;;;;;;4.85;3.15;;;0.50;98.10;;;;;;5036081;28;20112;-95
2022/03/09 03:08:43;;;;;;;7.63;3.28;;;0.60;98.50;;;;;;5051913;28;20040;-94
2022/03/09 03:11:10;;;;;;;6.00;2.42;;;0.60;98.70;;;;;;5036325;28;20059;-94
2022/03/09 03:13:38;;;;;;;5.63;2.72;;;1.50;99.10;;;;;;5034250;28;20053;-95
2022/03/09 03:16:04;;;;;;;4.75;2.72;;;1.90;99.30;;;;;;5034810;28;20626;-95
2022/03/09 03:18:30;;;;;;;5.97;3.30;;;0.60;98.90;;;;;;5017254;28;20045;-93
2022/03/09 03:20:56;;;;;;;5.53;3.00;;;0.40;99.00;;;;;;5034678;28;20051;-94
2022/03/09 03:23:27;;;;;;;5.60;3.42;;;2.00;99.50;;;;;;5033998;28;20041;-94
2022/03/09 03:25:53;;;;;;;5.35;3.13;;;0.50;99.30;;;;;;5050694;28;20050;-96
2022/03/09 03:28:20;;;;;;;8.52;3.53;;;0.70;99.30;;;;;;5051154;28;20579;-93
2022/03/09 03:30:46;;;;;;;6.68;3.15;;;1.80;99.60;;;;;;5033726;28;20040;-94
2022/03/09 03:33:14;;;;;;;5.30;3.53;;;0.40;99.50;;;;;;5035558;28;20041;-95
2022/03/09 03:35:40;;;;;;;5.43;3.28;;;0.50;99.70;;;;;;5038413;28;20044;-94
2022/03/09 03:38:06;;;;;;;5.60;3.40;;;0.30;99.80;;;;;;5055154;28;20036;-94
2022/03/09 03:40:32;;;;;;;6.13;3.00;;;0.40;99.60;;;;;;5054383;28;20083;-94
2022/03/09 03:42:58;;;;;;;5.35;3.00;;;0.50;99.90;;;;;;5021363;28;20048;-93
2022/03/09 03:45:23;;;;;;;4.47;3.00;;;0.50;99.90;;;;;;5021528;28;20056;-93
2022/03/09 03:47:49;;;;;;;6.60;3.42;;;0.50;99.90;;;;;;5053882;28;20036;-94
2022/03/09 03:50:15;;;;;;;9.20;3.33;;;1.30;99.90;;;;;;5022614;28;20044;-95
2022/03/09 03:52:41;;;;;;;9.23;3.50;;;0.60;99.90;;;;;;5022499;28;20048;-94
2022/03/09 03:55:07;;;;;;;7.05;3.08;;;1.80;99.90;;;;;;5047221;28;20052;-94
2022/03/09 03:57:33;;;;;;;4.38;2.78;;;0.60;99.90;;;;;;5030754;28;20107;-95
2022/03/09 03:59:58;;;;;;;6.00;3.75;;;0.70;99.90;;;;;;5027590;28;20084;-93
2022/03/09 04:02:24;;;;;;;8.00;3.72;;;2.10;99.90;;;;;;5037628;28;20044;-94
2022/03/09 04:04:52;;;;;;;5.97;3.65;;;1.40;99.90;;;;;;5037544;28;20044;-93
2022/03/09 04:07:19;;;;;;;5.32;2.90;;;0.60;99.80;;;;;;5021944;28;20055;-95
2022/03/09 04:09:45;;;;;;;7.43;3.17;;;2.00;99.90;;;;;;5037250;28;20041;-94
2022/03/09 04:12:11;;;;;;;7.10;3.80;;;0.50;99.90;;;;;;5054095;28;20088;-94
2022/03/09 04:14:37;;;;;;;5.30;3.05;;;0.50;99.90;;;;;;5036897;28;20094;-94
2022/03/09 04:17:03;;;;;;;6.25;3.22;;;0.40;99.90;;;;;;5037492;28;20036;-94
2022/03/09 04:19:29;;;;;;;5.05;3.30;;;0.40;99.90;;;;;;5054469;28;20071;-92
2022/03/09 04:21:56;;;;;;;6.80;3.13;;;0.40;99.90;;;;;;5053993;28;20091;-93
2022/03/09 04:24:22;;;;;;;5.88;3.15;;;0.40;99.90;;;;;;5038366;28;20084;-93
2022/03/09 04:26:47;;;;;;;7.60;3.28;;;0.40;99.90;;;;;;5055338;28;20381;-94
2022/03/09 04:29:14;;;;;;;10.50;4.57;;;0.40;99.90;;;;;;5055336;28;20040;-93
2022/03/09 04:31:39;;;;;;;5.10;3.50;;;0.20;99.90;;;;;;5054792;28;20040;-93
2022/03/09 04:34:06;;;;;;;6.18;3.47;;;0.20;99.90;;;;;;5038837;28;20541;-93
2022/03/09 04:36:32;;;;;;;5.45;3.38;;;0.30;99.90;;;;;;5037825;28;20041;-94
2022/03/09 04:38:58;;;;;;;6.82;3.60;;;0.30;99.90;;;;;;5037365;28;20047;-94
2022/03/09 04:41:24;;;;;;;6.53;3.90;;;0.30;99.90;;;;;;5020856;28;20047;-94
2022/03/09 04:43:50;;;;;;;8.10;3.90;;;0.30;99.90;;;;;;5036010;28;20127;-95
2022/03/09 04:46:17;;;;;;;8.60;4.50;;;1.50;99.90;;;;;;5037125;28;20163;-94
2022/03/09 04:48:44;;;;;;;9.85;4.95;;;0.40;99.90;;;;;;5053320;28;20044;-95
2022/03/09 04:51:10;;;;;;;10.88;5.18;;;1.40;99.90;;;;;;5037049;28;20050;-93
2022/03/09 04:53:36;;;;;;;11.07;5.40;;;0.30;99.90;;;;;;5053704;28;20099;-94
2022/03/09 04:56:02;;;;;;;8.02;4.95;;;0.20;99.90;;;;;;5052889;28;20484;-93
2022/03/09 04:58:28;;;;;;;10.15;4.53;;;0.30;99.90;;;;;;5037105;28;20072;-94
2022/03/09 05:00:54;;;;;;;8.90;4.75;;;0.30;99.90;;;;;;5052629;28;20120;-94
2022/03/09 05:03:20;;;;;;;7.55;3.55;;;0.30;99.90;;;;;;5053913;28;20041;-95
2022/03/09 05:05:46;;;;;;;7.05;4.03;;;0.20;99.90;;;;;;5036082;28;20086;-93
2022/03/09 05:08:11;;;;;;;8.00;3.88;;;0.30;99.90;;;;;;5020307;28;20055;-94
2022/03/09 05:10:38;;;;;;;7.05;3.63;;;0.20;99.90;;;;;;5036276;28;20106;-94
2022/03/09 05:13:04;;;;;;;6.22;3.83;;;0.20;99.90;;;;;;5052105;28;20081;-94
2022/03/09 05:15:30;;;;;;;7.55;3.95;;;0.10;99.90;;;;;;5052738;28;20091;-95
2022/03/09 05:17:56;;;;;;;7.28;3.63;;;0.30;99.90;;;;;;5052372;28;20479;-93
2022/03/09 05:20:22;;;;;;;9.02;3.35;;;0.20;99.90;;;;;;5036752;28;20044;-95
2022/03/09 05:22:48;;;;;;;5.90;3.38;;;0.10;99.90;;;;;;5052771;28;20044;-94
2022/03/09 05:25:14;;;;;;;6.15;3.65;;;0.20;99.90;;;;;;5036213;28;20041;-94
2022/03/09 05:27:40;;;;;;;8.20;4.22;;;0.10;99.90;;;;;;5052208;28;20098;-93
2022/03/09 05:30:09;;;;;;;6.07;3.70;;;1.80;99.90;;;;;;5051914;28;20048;-93
2022/03/09 05:32:35;;;;;;;6.63;3.72;;;0.30;99.90;;;;;;5037330;28;20526;-88
2022/03/09 05:35:02;;;;;;;9.98;4.40;;;0.30;99.90;;;;;;5035369;28;20051;-82
2022/03/09 05:37:28;;;;;;;7.43;4.45;;;1.30;99.90;;;;;;5068577;28;20430;-83
2022/03/09 05:39:54;;;;;;;7.93;4.40;;;1.70;99.90;;;;;;5051024;28;20093;-84
2022/03/09 05:42:20;;;;;;;7.90;4.60;;;0.30;99.90;;;;;;5069571;28;20056;-83
2022/03/09 05:44:46;;;;;;;7.03;4.22;;;0.20;99.90;;;;;;5067509;28;20041;-84
2022/03/09 05:47:12;;;;;;;6.22;3.60;;;0.20;99.90;;;;;;5068099;28;20496;-84
2022/03/09 05:49:38;;;;;;;7.50;4.10;;;0.80;99.90;;;;;;5069476;28;20032;-85
2022/03/09 05:52:04;;;;;;;10.50;4.50;;;0.10;99.90;;;;;;5051846;28;20356;-83
2022/03/09 05:54:30;;;;;;;7.05;4.10;;;0.10;99.90;;;;;;5069051;28;20539;-83
2022/03/09 05:56:55;;;;;;;6.50;3.67;;;0.10;99.90;;;;;;5066173;28;20179;-84
2022/03/09 05:59:21;;;;;;;7.95;4.05;;;0.10;99.90;;;;;;5050999;28;20041;-84
2022/03/09 06:01:47;;;;;;;9.57;4.45;;;0.10;99.90;;;;;;5034158;28;20131;-83
2022/03/09 06:04:13;;;;;;;7.97;4.25;;;0.10;99.90;;;;;;5068542;28;20474;-85
2022/03/09 06:06:38;;;;;;;6.18;4.32;;;0.00;99.90;;;;;;5067278;28;20052;-84
2022/03/09 06:09:04;;;;;;;6.38;3.63;;;1.10;99.90;;;;;;5050599;28;20378;-85
2022/03/09 06:11:30;;;;;;;14.88;3.95;;;1.40;99.90;;;;;;5051115;28;20393;-85
2022/03/09 06:13:55;;;;;;;7.25;3.70;;;0.00;99.90;;;;;;5067019;28;20041;-85
2022/03/09 06:16:21;;;;;;;10.07;3.72;;;0.00;99.90;;;;;;5050781;28;20052;-84
2022/03/09 06:18:47;;;;;;;10.32;4.78;;;0.10;99.90;;;;;;5050421;28;20109;-84
2022/03/09 06:21:16;;;;;;;9.05;4.80;;;0.10;99.90;;;;;;5034002;28;20099;-84
2022/03/09 06:23:42;;;;;;;7.97;4.10;;;1.40;99.90;;;;;;5052238;28;20510;-85
2022/03/09 06:26:08;;;;;;;9.57;4.65;;;0.10;99.90;;;;;;5068714;28;20101;-84
2022/03/09 06:28:34;;;;;;;7.80;4.82;;;0.10;99.90;;;;;;5068004;28;20461;-84
2022/03/09 06:30:59;;;;;;;9.70;4.55;;;0.10;99.90;;;;;;5066691;28;20127;-84
2022/03/09 06:33:25;;;;;;;10.02;4.25;;;0.30;99.90;;;;;;5068389;28;20041;-83
2022/03/09 06:35:51;;;;;;;8.30;4.15;;;0.10;99.90;;;;;;5067953;28;20124;-83
2022/03/09 06:38:17;;;;;;;9.93;4.68;;;0.10;99.90;;;;;;5066569;28;20055;-84
2022/03/09 06:40:44;;;;;;;7.82;4.50;;;0.10;99.90;;;;;;5067649;28;20200;-83
2022/03/09 06:43:10;;;;;;;8.90;5.05;;;0.20;99.90;;;;;;5067399;28;20064;-83
2022/03/09 06:45:35;;;;;;;8.07;4.47;;;0.20;99.90;;;;;;5068124;28;20040;-82
2022/03/09 06:48:02;;;;;;;8.80;4.40;;;0.20;99.90;;;;;;5066532;28;20051;-81
2022/03/09 06:50:30;;;;;;;8.32;4.43;;;0.20;99.90;;;;;;5068348;28;20052;-82
2022/03/09 06:52:56;;;;;;;6.85;4.05;;;0.30;99.90;;;;;;5066251;28;20441;-80
2022/03/09 06:55:22;;;;;;;9.25;4.10;;;0.30;99.90;;;;;;5068282;28;20098;-83
2022/03/09 06:57:48;;;;;;;8.90;4.45;;;0.40;99.90;;;;;;5067939;28;20099;-82
2022/03/09 07:00:14;;;;;;;7.45;3.95;;;0.50;99.90;;;;;;5067383;28;20041;-81
2022/03/09 07:02:41;;;;;;;9.25;4.18;;;0.60;99.90;;;;;;5067995;28;20048;-81
2022/03/09 07:05:08;;;;;;;9.98;4.55;;;1.30;99.90;;;;;;5067237;28;20037;-82
2022/03/09 07:07:34;;;;;;;7.97;4.60;;;0.80;99.90;;;;;;5067428;28;20041;-82
2022/03/09 07:09:59;;;;;;;11.90;5.10;;;0.80;99.90;;;;;;5067659;28;20046;-82
2022/03/09 07:12:25;;;;;;;10.23;4.95;;;1.00;99.90;;;;;;5065928;28;20391;-81
2022/03/09 07:14:51;;;;;;;10.02;3.85;;;1.10;99.90;;;;;;5065153;28;20049;-81
2022/03/09 07:17:18;;;;;;;7.90;4.60;;;1.30;99.90;;;;;;5066886;28;20052;-83
2022/03/09 07:19:44;;;;;;;9.20;4.93;;;0.30;99.90;;;;;;5066262;28;20040;-83
2022/03/09 07:22:10;;;;;;;7.07;4.32;;;1.50;99.90;;;;;;5048439;28;20055;-83
2022/03/09 07:24:36;;;;;;;11.55;4.13;;;1.60;99.90;;;;;;5066233;28;20097;-82
2022/03/09 07:27:02;;;;;;;8.13;4.32;;;3.20;99.90;;;;;;5066663;28;20080;-81
2022/03/09 07:29:28;;;;;;;7.57;4.32;;;1.80;99.90;;;;;;5064745;28;20087;-81
2022/03/09 07:31:53;;;;;;;9.50;4.85;;;1.90;99.90;;;;;;5064413;28;20131;-81
2022/03/09 07:34:22;;;;;;;8.73;3.88;;;2.00;99.90;;;;;;5066195;28;20037;-82
2022/03/09 07:36:49;;;;;;;8.13;4.57;;;3.40;99.90;;;;;;5065744;28;20040;-82
2022/03/09 07:39:15;;;;;;;8.50;4.35;;;2.70;99.90;;;;;;5064590;28;20060;-82
2022/03/09 07:41:41;;;;;;;8.73;4.50;;;3.50;99.90;;;;;;5065885;28;20127;-83
2022/03/09 07:44:07;;;;;;;11.50;4.35;;;2.40;99.90;;;;;;5065277;28;20083;-83
2022/03/09 07:46:32;;;;;;;10.95;4.93;;;2.50;99.90;;;;;;5066052;28;20072;-82
2022/03/09 07:48:58;;;;;;;8.65;4.30;;;2.70;99.80;;;;;;5065966;28;20040;-82
2022/03/09 07:51:24;;;;;;;9.90;4.53;;;2.80;99.50;;;;;;5066131;28;20037;-79
2022/03/09 07:53:50;;;;;;;7.47;4.32;;;2.90;99.20;;;;;;5047917;28;20073;-82
2022/03/09 07:56:15;;;;;;;9.20;4.43;;;2.90;98.40;;;;;;5065091;28;20048;-82
2022/03/09 07:58:42;;;;;;;8.65;4.78;;;3.10;97.90;;;;;;5065901;28;20499;-84
2022/03/09 08:01:08;;;;;;;7.80;4.20;;;3.20;97.20;;;;;;5065008;28;20056;-83
2022/03/09 08:03:33;;;;;;;7.65;4.15;;;3.20;96.70;;;;;;5064852;28;20044;-84
2022/03/09 08:05:59;;;;;;;8.15;4.72;;;3.50;96.90;;;;;;5048555;28;20079;-84
2022/03/09 08:08:25;;;;;;;8.30;4.22;;;3.50;96.50;;;;;;5065169;28;20063;-84
2022/03/09 08:10:51;;;;;;;6.72;3.97;;;3.50;96.50;;;;;;5048002;28;20135;-84
2022/03/09 08:13:17;;;;;;;11.20;4.60;;;3.60;96.10;;;;;;5064602;28;20056;-84
2022/03/09 08:15:43;;;;;;;7.45;4.45;;;4.20;95.70;;;;;;5064619;28;20036;-82
2022/03/09 08:18:09;;;;;;;19.40;4.60;;;4.90;95.00;;;;;;5048367;28;20041;-84
2022/03/09 08:20:35;;;;;;;9.00;4.43;;;4.20;94.10;;;;;;5069450;28;20050;-83
2022/03/09 08:23:01;;;;;;;14.13;4.05;;;4.30;93.70;;;;;;5035511;28;20048;-83
2022/03/09 08:25:27;;;;;;;8.85;4.65;;;4.40;93.60;;;;;;5070034;28;20404;-82
2022/03/09 08:27:53;;;;;;;10.10;4.85;;;4.50;93.20;;;;;;5069866;28;20045;-83
2022/03/09 08:30:19;;;;;;;9.52;4.07;;;4.50;92.70;;;;;;5069342;28;20048;-82
2022/03/09 08:32:44;;;;;;;6.93;3.88;;;4.70;92.40;;;;;;5068113;28;20052;-81
2022/03/09 08:35:10;;;;;;;9.10;4.78;;;4.90;92.20;;;;;;5035109;28;20040;-82
2022/03/09 08:37:36;;;;;;;13.25;4.35;;;5.00;90.80;;;;;;5068392;28;20045;-83
2022/03/09 08:40:04;;;;;;;7.13;3.95;;;5.10;90.90;;;;;;5068508;28;20089;-82
2022/03/09 08:42:30;;;;;;;9.60;5.13;;;5.20;89.90;;;;;;5036568;28;20045;-81
2022/03/09 08:44:55;;;;;;;10.55;4.28;;;5.30;90.30;;;;;;5069542;28;20514;-82
2022/03/09 08:47:21;;;;;;;8.50;4.53;;;5.50;90.20;;;;;;5052973;28;20072;-83
2022/03/09 08:49:47;;;;;;;9.45;3.97;;;5.60;89.10;;;;;;5071886;28;20048;-82
2022/03/09 08:52:14;;;;;;;7.25;4.00;;;5.80;87.90;;;;;;5040246;28;20037;-83
2022/03/09 08:54:43;;;;;;;8.10;4.50;;;6.00;85.70;;;;;;5043262;28;20044;-83
2022/03/09 08:57:09;;;;;;;7.88;4.43;;;6.10;84.50;;;;;;5072984;28;20067;-83
2022/03/09 08:59:35;;;;;;;8.57;4.32;;;7.70;84.50;;;;;;5070248;28;20064;-82
2022/03/09 09:02:01;;;;;;;8.63;4.57;;;6.30;82.80;;;;;;5069254;28;20547;-82
2022/03/09 09:04:27;;;;;;;12.15;4.30;;;6.40;81.90;;;;;;5069128;28;20045;-83
2022/03/09 09:06:53;;;;;;;11.25;4.60;;;6.50;81.60;;;;;;5052215;28;20041;-81
2022/03/09 09:09:20;;;;;;;7.50;4.20;;;6.60;81.30;;;;;;5069342;28;20071;-82
2022/03/09 09:11:46;;;;;;;9.07;4.13;;;6.70;80.90;;;;;;5051473;28;20044;-83
2022/03/09 09:14:13;;;;;;;7.13;4.25;;;6.70;80.90;;;;;;5053817;28;20044;-83
2022/03/09 09:16:41;;;;;;;12.05;4.55;;;6.80;78.80;;;;;;5070790;28;20467;-82
2022/03/09 09:19:08;;;;;;;9.40;4.13;;;7.70;79.50;;;;;;5070924;28;20041;-83
2022/03/09 09:21:34;;;;;;;7.38;3.95;;;7.00;78.30;;;;;;5053571;28;20099;-82
2022/03/09 09:23:59;;;;;;;8.82;3.92;;;7.30;78.20;;;;;;5068946;28;20045;-82
2022/03/09 09:26:25;;;;;;;7.78;4.20;;;7.20;77.30;;;;;;5036260;28;20048;-81
2022/03/09 09:28:51;;;;;;;7.70;4.60;;;7.30;76.30;;;;;;5068517;28;20040;-82
2022/03/09 09:31:22;;;;;;;7.22;3.97;;;7.40;75.60;;;;;;5069028;28;20049;-81
2022/03/09 09:33:48;;;;;;;9.35;3.53;;;8.20;76.10;;;;;;5069333;28;20059;-83
2022/03/09 09:36:16;;;;;;;7.20;4.30;;;7.60;74.70;;;;;;5069860;28;20418;-83
2022/03/09 09:38:41;;;;;;;10.90;4.70;;;7.90;73.50;;;;;;5069581;28;20052;-83
2022/03/09 09:41:13;;;;;;;6.25;3.47;;;7.90;74.20;;;;;;5051510;28;20537;-82
2022/03/09 09:43:40;;;;;;;7.75;4.25;;;8.10;71.70;;;;;;5068204;28;20508;-82
2022/03/09 09:46:07;;;;;;;5.20;3.58;;;8.30;71.30;;;;;;5067882;28;20048;-81
2022/03/09 09:48:33;;;;;;;6.88;4.43;;;8.50;69.70;;;;;;5068296;28;20400;-82
2022/03/09 09:51:05;;;;;;;15.40;4.78;;;10.00;69.10;;;;;;5067972;28;20045;-82
2022/03/09 09:53:33;;;;;;;8.23;4.20;;;9.00;68.90;;;;;;5051197;28;20177;-81
2022/03/09 09:56:00;;;;;;;8.52;4.63;;;9.20;67.80;;;;;;5051583;28;20047;-83
2022/03/09 09:58:28;;;;;;;7.05;4.03;;;9.30;67.50;;;;;;5067675;28;20109;-82
2022/03/09 10:00:55;;;;;;;6.90;4.20;;;9.50;65.70;;;;;;5068639;28;20290;-83
2022/03/09 10:03:21;;;;;;;7.18;4.30;;;9.60;66.10;;;;;;5050961;28;20055;-82
2022/03/09 10:05:47;;;;;;;7.85;4.68;;;11.10;66.50;;;;;;5068457;28;20068;-80
2022/03/09 10:08:16;;;;;;;7.80;4.47;;;9.90;65.50;;;;;;5069370;28;20040;-80
2022/03/09 10:10:55;;;;;;;7.60;3.72;;;9.80;65.50;;;;;;5070381;28;20042;-81
2022/03/09 10:13:26;;;;;;;7.55;4.60;;;10.00;63.10;;;;;;5068495;28;20059;-80
2022/03/09 10:16:20;;;;;;;9.27;4.78;;;10.10;63.80;;;;;;5067366;28;20556;-80
2022/03/09 10:18:49;;;;;;;9.82;4.43;;;10.20;59.50;;;;;;5070255;28;20511;-80
2022/03/09 10:21:18;;;;;;;6.50;4.15;;;10.20;61.30;;;;;;5068465;28;20110;-81
2022/03/09 10:23:51;;;;;;;6.65;4.50;;;10.20;61.00;;;;;;5067624;28;20392;-81
2022/03/09 10:26:17;;;;;;;8.38;4.00;;;10.20;59.60;;;;;;5067456;28;20083;-81
2022/03/09 10:29:07;;;;;;;9.55;3.90;;;10.20;61.00;;;;;;5065494;28;20336;-81
2022/03/09 10:31:36;;;;;;;8.23;4.97;;;10.30;59.40;;;;;;5067691;28;20056;-81
2022/03/09 10:34:16;;;;;;;8.57;4.00;;;10.30;59.80;;;;;;5065756;28;20508;-81
2022/03/09 10:36:58;;;;;;;8.63;4.35;;;11.20;57.90;;;;;;5065852;28;20091;-81
2022/03/09 10:39:27;;;;;;;5.50;3.83;;;10.50;59.20;;;;;;5066228;28;20409;-81
2022/03/09 10:41:53;;;;;;;7.55;3.97;;;10.70;59.90;;;;;;5065176;28;20056;-82
2022/03/09 10:44:39;;;;;;;11.77;4.45;;;10.70;58.60;;;;;;5065706;28;20125;-82
2022/03/09 10:47:04;;;;;;;6.22;3.95;;;10.80;57.40;;;;;;5067111;28;20074;-82
2022/03/09 10:49:30;;;;;;;9.20;4.47;;;10.90;57.40;;;;;;5066946;28;20044;-81
2022/03/09 10:51:56;;;;;;;8.75;4.47;;;11.00;56.80;;;;;;5065879;28;20051;-81
2022/03/09 10:54:23;;;;;;;6.72;3.88;;;10.90;55.70;;;;;;5065163;28;20046;-80
2022/03/09 10:56:49;;;;;;;8.50;4.15;;;11.00;56.60;;;;;;5067347;28;20063;-81
2022/03/09 10:59:20;;;;;;;8.85;4.20;;;11.00;56.40;;;;;;5032163;28;20322;-81
2022/03/09 11:02:08;;;;;;;6.38;4.45;;;11.00;56.20;;;;;;5067210;28;20040;-81
2022/03/09 11:04:35;;;;;;;13.63;4.53;;;11.20;56.00;;;;;;5067292;28;20049;-81
2022/03/09 11:07:01;;;;;;;7.55;4.10;;;11.20;56.10;;;;;;5048344;28;20526;-80
2022/03/09 11:09:27;;;;;;;6.85;3.85;;;11.30;55.60;;;;;;5067033;28;20521;-81
2022/03/09 11:11:53;;;;;;;6.70;4.15;;;11.40;55.90;;;;;;5066310;28;20048;-84
2022/03/09 11:14:20;;;;;;;6.75;4.40;;;12.20;55.70;;;;;;5049306;28;20052;-83
2022/03/09 11:16:48;;;;;;;7.20;3.80;;;11.50;54.90;;;;;;5065797;28;20464;-83
2022/03/09 11:19:16;;;;;;;10.30;4.03;;;11.60;54.70;;;;;;5065453;28;20052;-83
2022/03/09 11:21:42;;;;;;;8.20;4.32;;;11.60;54.20;;;;;;5066319;28;20053;-82
2022/03/09 11:24:10;;;;;;;7.82;4.68;;;11.80;54.20;;;;;;5051340;28;20045;-83
2022/03/09 11:26:51;;;;;;;7.45;3.97;;;11.70;54.50;;;;;;5049924;28;20385;-82
2022/03/09 11:29:28;;;;;;;6.60;4.63;;;11.80;53.50;;;;;;5048757;28;20102;-82
2022/03/09 11:31:53;;;;;;;5.38;4.13;;;12.10;53.20;;;;;;5065213;28;20044;-82
2022/03/09 11:34:41;;;;;;;7.95;4.85;;;11.90;51.80;;;;;;5065304;28;20078;-83
2022/03/09 11:37:12;;;;;;;6.70;4.00;;;12.00;49.80;;;;;;5048464;28;20055;-83
2022/03/09 11:39:41;;;;;;;10.35;4.68;;;12.00;52.20;;;;;;5049070;28;20040;-83
2022/03/09 11:42:22;;;;;;;9.18;4.43;;;12.00;52.20;;;;;;5032248;28;20076;-83
2022/03/09 11:44:48;;;;;;;7.80;4.18;;;12.10;49.10;;;;;;5048946;28;20067;-83
2022/03/09 11:47:15;;;;;;;6.07;4.32;;;12.10;51.60;;;;;;5065211;28;20036;-83
2022/03/09 11:49:49;;;;;;;7.68;5.18;;;12.20;52.20;;;;;;5047938;28;20060;-83
2022/03/09 11:52:17;;;;;;;9.18;4.90;;;12.30;52.00;;;;;;5067088;28;20103;-82
2022/03/09 11:54:55;;;;;;;8.75;4.00;;;12.40;52.00;;;;;;5050282;28;20492;-80
2022/03/09 11:57:41;;;;;;;7.28;4.43;;;12.50;51.40;;;;;;5070676;28;20045;-82
2022/03/09 12:00:18;;;;;;;10.98;4.70;;;12.60;52.00;;;;;;5070106;28;20075;-83
2022/03/09 12:02:51;;;;;;;5.88;4.28;;;12.70;51.50;;;;;;5068772;28;20051;-80
2022/03/09 12:05:31;;;;;;;7.25;4.75;;;12.70;50.60;;;;;;5053636;28;20416;-81
2022/03/09 12:08:01;;;;;;;6.97;4.43;;;12.80;50.90;;;;;;5068332;28;20098;-82
2022/03/09 12:10:44;;;;;;;9.55;4.93;;;13.30;50.90;;;;;;5068832;28;20102;-81
2022/03/09 12:13:17;;;;;;;5.83;3.43;;;12.90;49.60;;;;;;5068551;28;20060;-81
2022/03/09 12:16:02;;;;;;;12.50;4.80;;;12.90;50.60;;;;;;5068565;28;20094;-81
2022/03/09 12:18:55;;;;;;;7.70;4.80;;;12.90;48.60;;;;;;5070369;28;20040;-82
2022/03/09 12:21:27;;;;;;;5.97;3.92;;;12.90;49.80;;;;;;5069145;28;20048;-83
2022/03/09 12:24:04;;;;;;;7.00;4.25;;;12.80;49.30;;;;;;5069161;28;20492;-81
2022/03/09 12:26:39;;;;;;;7.63;4.43;;;12.80;46.70;;;;;;5070159;28;20415;-81
2022/03/09 12:29:20;;;;;;;9.05;4.70;;;12.90;48.40;;;;;;5069254;28;20051;-81
2022/03/09 12:31:46;;;;;;;8.38;4.78;;;12.90;47.10;;;;;;5069738;28;20048;-82
2022/03/09 12:34:27;;;;;;;12.32;4.30;;;13.00;48.20;;;;;;5068587;28;20040;-81
2022/03/09 12:36:53;;;;;;;8.35;4.88;;;12.90;46.90;;;;;;5068893;28;20492;-82
2022/03/09 12:39:19;;;;;;;6.85;4.47;;;13.10;47.30;;;;;;5069457;28;20188;-81
2022/03/09 12:41:51;;;;;;;7.68;4.88;;;13.20;47.60;;;;;;5067784;28;20055;-80
2022/03/09 12:44:18;;;;;;;7.18;4.13;;;13.20;46.80;;;;;;5068201;28;20044;-81
2022/03/09 12:46:49;;;;;;;6.20;4.78;;;13.20;45.70;;;;;;5067624;28;20045;-81
2022/03/09 12:49:20;;;;;;;15.98;4.15;;;13.30;46.70;;;;;;5069309;28;20041;-80
2022/03/09 12:51:59;;;;;;;8.60;4.93;;;13.30;45.50;;;;;;5068168;28;20080;-80
2022/03/09 12:54:33;;;;;;;7.85;4.50;;;13.30;44.50;;;;;;5050383;28;20044;-81